Paynes Point, Illinois
Current Conditions -  °F | °C
As of 7:15 AM on Monday 22 Dec 2014 (Local Time) from KRPJ Reporting Station
Haze Haze  
Wind Chill: 24°   Ceiling: 7000
Heat Index: 32°   Visibility: 5mi
Dew Point: 30°   Wind: 10mph
Humidity: 92%   Direction: 120°ESE
Pressure: 29.88"   Gusts: NA
Location:  41.9937°N, 89.1961°W
Report Text: KRPJ 221315Z AUTO 12009KT 5SM BR SCT038 BKN070 OVC080 00/M01 A2988 RMK AO2 T00001012
Loading
Personal Weather Stations






























Interactive Weather Map New forecast layout! Learn more

10-Day Weather Forecast

Advertisements
Track Severe Weather on mobile